createdAt,value
2023-03-20T00:03:42.603Z,2.00
2023-03-20T00:08:46.368Z,1.70
2023-03-20T00:13:48.439Z,2.13
2023-03-20T00:18:50.656Z,1.25
2023-03-20T00:23:54.821Z,1.40
2023-03-20T00:28:57.830Z,1.48
2023-03-20T00:34:03.638Z,1.20
2023-03-20T00:39:06.095Z,1.60
2023-03-20T00:44:30.404Z,1.10
2023-03-20T00:49:35.395Z,1.48
2023-03-20T00:54:37.489Z,1.30
2023-03-20T00:59:48.662Z,1.20
2023-03-20T01:04:50.753Z,1.10
2023-03-20T01:09:53.922Z,1.15
2023-03-20T01:14:57.892Z,1.30
2023-03-20T01:19:59.971Z,1.42
2023-03-20T01:25:03.119Z,1.00
2023-03-20T01:30:20.480Z,1.40
2023-03-20T01:35:27.446Z,0.90
2023-03-20T01:40:40.216Z,1.13
2023-03-20T01:46:11.078Z,1.15
2023-03-20T01:51:14.104Z,1.48
2023-03-20T01:56:19.638Z,1.35
2023-03-20T02:01:28.076Z,1.25
2023-03-20T02:06:30.526Z,1.33
2023-03-20T02:11:49.956Z,1.10
2023-03-20T02:16:55.049Z,1.40
2023-03-20T02:22:42.578Z,1.58
2023-03-20T02:28:24.316Z,1.52
2023-03-20T02:33:29.626Z,1.30
2023-03-20T02:38:34.774Z,1.50
2023-03-20T02:43:46.729Z,0.80
2023-03-20T02:48:57.824Z,1.50
2023-03-20T02:54:18.560Z,0.93
2023-03-20T02:59:57.822Z,1.30
2023-03-20T03:05:04.039Z,1.40
2023-03-20T03:10:15.684Z,1.50
2023-03-20T03:15:22.801Z,1.23
2023-03-20T03:20:38.643Z,1.50
2023-03-20T03:30:45.322Z,1.42
2023-03-20T03:35:49.852Z,1.17
2023-03-20T03:41:05.207Z,1.50
2023-03-20T03:46:17.287Z,0.87
2023-03-20T03:51:25.148Z,1.17
2023-03-20T03:56:46.848Z,1.00
2023-03-20T04:01:51.781Z,1.40
2023-03-20T04:06:53.944Z,1.50
2023-03-20T04:11:56.166Z,1.17
2023-03-20T04:16:58.194Z,1.15
2023-03-20T04:22:00.508Z,1.45
2023-03-20T04:27:04.531Z,1.15
2023-03-20T04:32:07.268Z,1.30
2023-03-20T04:37:22.801Z,1.15
2023-03-20T04:42:34.017Z,0.95
2023-03-20T04:47:39.816Z,1.20
2023-03-20T04:52:42.437Z,1.23
2023-03-20T04:57:45.193Z,1.10
2023-03-20T05:02:48.124Z,1.20
2023-03-20T05:07:52.054Z,1.40
2023-03-20T05:13:06.466Z,1.08
2023-03-20T05:18:31.524Z,1.17
2023-03-20T05:23:46.921Z,1.35
2023-03-20T05:29:10.033Z,1.30
2023-03-20T05:34:42.653Z,1.10
2023-03-20T05:40:15.969Z,1.05
2023-03-20T05:45:38.228Z,1.35
2023-03-20T05:50:58.625Z,1.13
2023-03-20T05:56:18.987Z,1.40
2023-03-20T06:01:36.189Z,1.48
2023-03-20T06:06:56.471Z,1.17
2023-03-20T06:11:59.957Z,1.48
2023-03-20T06:17:02.427Z,1.30
2023-03-20T06:22:05.885Z,1.30
2023-03-20T06:27:08.444Z,1.30
2023-03-20T06:32:12.395Z,1.38
2023-03-20T06:37:14.885Z,1.20
2023-03-20T06:42:17.654Z,1.35
2023-03-20T06:47:21.620Z,1.10
2023-03-20T06:52:25.221Z,1.25
2023-03-20T06:57:49.758Z,1.98
2023-03-20T07:02:54.466Z,1.20
2023-03-20T07:07:56.766Z,1.15
2023-03-20T07:12:59.023Z,1.33
2023-03-20T07:18:01.333Z,1.05
2023-03-20T07:23:03.561Z,1.15
2023-03-20T07:28:08.985Z,1.10
2023-03-20T07:33:13.834Z,1.35
2023-03-20T07:38:16.052Z,1.05
2023-03-20T07:43:26.549Z,1.48
2023-03-20T07:48:35.900Z,1.42
2023-03-20T07:53:38.196Z,1.00
2023-03-20T07:58:40.310Z,1.13
2023-03-20T08:03:42.397Z,1.52
2023-03-20T08:08:45.172Z,1.00
2023-03-20T08:13:47.391Z,1.15
2023-03-20T08:18:50.778Z,1.40
2023-03-20T08:23:53.051Z,1.38
2023-03-20T08:28:55.312Z,1.15
2023-03-20T08:33:57.475Z,1.25
2023-03-20T08:38:59.577Z,1.13
2023-03-20T08:44:01.791Z,1.35
2023-03-20T08:49:05.289Z,1.60
2023-03-20T08:54:07.411Z,1.20
2023-03-20T08:59:09.682Z,1.35
2023-03-20T09:04:13.181Z,1.35
2023-03-20T09:09:16.208Z,1.30
2023-03-20T09:14:18.567Z,1.20
2023-03-20T09:19:21.228Z,1.42
2023-03-20T09:24:23.333Z,1.10
2023-03-20T09:29:25.446Z,1.50
2023-03-20T09:34:27.633Z,1.33
2023-03-20T09:39:30.215Z,1.20
2023-03-20T09:44:59.300Z,1.35
2023-03-20T09:50:12.566Z,1.02
2023-03-20T09:55:18.588Z,1.00
2023-03-20T10:00:29.685Z,1.08
2023-03-20T10:05:39.888Z,1.15
2023-03-20T10:11:18.464Z,1.45
2023-03-20T10:16:41.284Z,1.15
2023-03-20T10:21:45.481Z,1.20
2023-03-20T10:26:50.887Z,1.00
2023-03-20T10:32:21.962Z,0.98
2023-03-20T10:37:45.693Z,1.30
2023-03-20T10:42:49.326Z,1.23
2023-03-20T10:47:53.052Z,1.08
2023-03-20T10:52:57.064Z,1.20
2023-03-20T10:58:23.544Z,1.02
2023-03-20T11:08:41.883Z,0.90
2023-03-20T11:13:45.198Z,1.20
2023-03-20T11:18:49.433Z,1.02
2023-03-20T11:23:52.538Z,0.90
2023-03-20T11:28:59.856Z,1.00
2023-03-20T11:34:07.779Z,0.80
2023-03-20T11:39:29.542Z,1.00
2023-03-20T11:44:36.604Z,0.82
2023-03-20T11:49:55.357Z,0.85
2023-03-20T11:54:59.131Z,0.73
2023-03-20T12:00:20.241Z,0.65
2023-03-20T12:05:36.440Z,1.00
2023-03-20T12:10:42.887Z,0.70
2023-03-20T12:15:52.351Z,0.90
2023-03-20T12:21:16.963Z,0.90
2023-03-20T12:26:23.059Z,1.10
2023-03-20T12:32:29.809Z,0.80
2023-03-20T12:37:32.689Z,1.00
2023-03-20T12:42:47.044Z,1.02
2023-03-20T12:48:01.347Z,1.08
2023-03-20T12:53:17.941Z,0.98
2023-03-20T12:58:31.881Z,1.00
2023-03-20T13:04:11.194Z,1.20
2023-03-20T13:09:19.338Z,1.00
2023-03-20T13:14:46.277Z,1.05
2023-03-20T13:20:00.134Z,1.52
2023-03-20T13:25:15.930Z,0.80
2023-03-20T13:30:36.863Z,1.00
2023-03-20T13:36:05.797Z,0.90
2023-03-20T13:41:10.311Z,0.88
2023-03-20T13:46:20.427Z,0.95
2023-03-20T13:51:55.058Z,1.13
2023-03-20T13:57:11.952Z,0.90
2023-03-20T14:02:32.300Z,1.00
2023-03-20T14:07:42.004Z,0.75
2023-03-20T14:12:48.217Z,1.02
2023-03-20T14:17:52.200Z,1.02
2023-03-20T14:22:56.930Z,0.90
2023-03-20T14:28:06.676Z,1.10
2023-03-20T14:33:26.185Z,1.10
2023-03-20T14:38:52.580Z,1.10
2023-03-20T14:44:27.156Z,1.05
2023-03-20T14:49:44.758Z,0.90
2023-03-20T14:54:54.060Z,1.10
2023-03-20T14:59:56.263Z,1.00
2023-03-20T15:04:58.460Z,1.35
2023-03-20T15:10:03.040Z,1.38
2023-03-20T15:15:08.374Z,1.00
2023-03-20T15:20:18.602Z,0.73
2023-03-20T15:25:23.608Z,1.20
2023-03-20T15:30:26.789Z,1.13
2023-03-20T15:35:29.046Z,1.98
2023-03-20T15:40:49.232Z,1.20
2023-03-20T15:46:14.319Z,1.33
2023-03-20T15:51:24.278Z,1.40
2023-03-20T15:56:27.630Z,0.88
2023-03-20T16:01:32.314Z,1.10
2023-03-20T16:06:34.656Z,0.97
2023-03-20T16:11:39.939Z,1.15
2023-03-20T16:16:42.201Z,1.73
2023-03-20T16:21:52.801Z,1.60
2023-03-20T16:26:55.929Z,1.20
2023-03-20T16:32:04.003Z,1.30
2023-03-20T16:37:36.526Z,0.90
2023-03-20T16:42:38.744Z,1.20
2023-03-20T16:47:41.504Z,1.20
2023-03-20T16:52:58.388Z,1.10
2023-03-20T16:58:06.534Z,1.40
2023-03-20T17:03:17.721Z,1.20
2023-03-20T17:08:29.915Z,1.48
2023-03-20T17:13:31.971Z,1.70
2023-03-20T17:18:35.629Z,1.50
2023-03-20T17:23:37.689Z,1.35
2023-03-20T17:28:39.864Z,1.90
2023-03-20T17:33:42.522Z,2.42
2023-03-20T17:38:44.997Z,1.40
2023-03-20T17:43:47.668Z,3.42
2023-03-20T17:48:51.326Z,1.75
2023-03-20T17:53:56.046Z,2.88
2023-03-20T17:58:59.537Z,2.67
2023-03-20T18:04:01.578Z,3.17
2023-03-20T18:09:05.126Z,1.90
2023-03-20T18:14:08.478Z,1.90
2023-03-20T18:19:24.342Z,1.50
2023-03-20T18:24:27.068Z,2.30
2023-03-20T18:29:29.176Z,1.98
2023-03-20T18:34:31.252Z,3.50
2023-03-20T18:39:33.295Z,1.63
2023-03-20T18:44:35.664Z,2.13
2023-03-20T18:49:38.832Z,3.85
2023-03-20T18:54:41.212Z,5.45
2023-03-20T18:59:43.729Z,3.95
2023-03-20T19:04:45.941Z,2.10
2023-03-20T19:09:47.977Z,1.67
2023-03-20T19:14:50.063Z,1.77
2023-03-20T19:19:52.156Z,2.55
2023-03-20T19:24:54.331Z,2.58
2023-03-20T19:29:57.465Z,2.33
2023-03-20T19:40:42.723Z,2.28
2023-03-20T19:45:45.657Z,1.80
2023-03-20T19:50:51.193Z,3.22
2023-03-20T19:55:54.266Z,3.97
2023-03-20T20:00:58.453Z,3.60
2023-03-20T20:06:02.837Z,3.53
2023-03-20T20:11:05.595Z,3.75
2023-03-20T20:16:07.969Z,2.20
2023-03-20T20:22:02.530Z,2.60
2023-03-20T20:26:38.939Z,2.35
2023-03-20T20:31:44.526Z,2.55
2023-03-20T20:42:08.866Z,2.50
2023-03-20T20:47:11.192Z,2.85
2023-03-20T20:52:14.214Z,1.80
2023-03-20T20:57:16.655Z,1.70
2023-03-20T21:02:19.078Z,1.55
2023-03-20T21:07:22.149Z,1.60
2023-03-20T21:12:36.433Z,1.90
2023-03-20T21:17:50.399Z,1.45
2023-03-20T21:23:00.236Z,1.30
2023-03-20T21:28:02.354Z,2.05
2023-03-20T21:33:04.626Z,3.42
2023-03-20T21:38:55.400Z,5.35
2023-03-20T21:43:28.783Z,3.78
2023-03-20T21:54:56.456Z,3.67
2023-03-20T21:59:53.864Z,3.08
2023-03-20T22:10:48.864Z,2.60
2023-03-20T22:16:10.031Z,5.10
2023-03-20T22:21:41.862Z,2.33
2023-03-20T22:26:58.617Z,3.30
2023-03-20T22:32:27.952Z,2.88
2023-03-20T22:37:45.796Z,2.80
2023-03-20T22:47:38.093Z,2.50
2023-03-20T22:52:49.011Z,2.13
2023-03-20T22:58:06.262Z,1.83
2023-03-20T23:03:29.600Z,1.50
2023-03-20T23:08:55.492Z,1.80
2023-03-20T23:13:59.532Z,1.92
2023-03-20T23:19:01.703Z,2.30
2023-03-20T23:24:04.083Z,1.73
2023-03-20T23:29:06.490Z,1.92
2023-03-20T23:34:08.627Z,2.20
2023-03-20T23:39:12.954Z,1.75
2023-03-20T23:44:15.073Z,1.70
2023-03-20T23:49:17.673Z,2.20
2023-03-20T23:54:19.886Z,1.60
2023-03-20T23:59:22.676Z,1.40
